Time;durP1;ratioP1;P1;durP2;ratioP2;P2;SDS_P1;SDS_P2;PMS_P1;PMS_P2;Temp;Humidity;BMP_temperature;BMP_pressure;BME280_temperature;BME280_humidity;BME280_pressure;Samples;Min_cycle;Max_cycle;Signal;HPM_P1;HPM_P2
2021/11/19 00:00:13;;;;;;;;;;;8.30;99.90;8.50;101037.00;;;;345231;28;91672;-88
2021/11/19 00:00:43;;;;;;;;;;;8.30;99.90;8.70;101050.00;;;;344803;28;83299;-88
2021/11/19 00:00:58;;;;;;;;;;;8.30;99.90;8.70;101048.00;;;;344476;28;88365;-88
2021/11/19 00:01:15;;;;;;;;;;;8.30;99.90;8.70;101048.00;;;;344860;28;83250;-88
2021/11/19 00:01:34;;;;;;;;;;;8.30;99.90;8.70;101037.00;;;;345545;28;90515;-88
2021/11/19 00:01:49;;;;;;;;;;;8.30;99.90;8.80;101040.00;;;;347342;28;82601;-88
2021/11/19 00:02:01;;;;;;;;;;;8.30;99.90;8.80;101043.00;;;;345686;28;90456;-88
2021/11/19 00:02:14;;;;;;;;;;;8.30;99.90;8.70;101039.00;;;;347694;28;82586;-88
2021/11/19 00:02:27;;;;;;;;;;;8.30;99.90;8.70;101044.00;;;;346900;28;91969;-87
2021/11/19 00:02:39;;;;;;;;;;;8.30;99.90;8.60;101042.00;;;;345646;28;82634;-89
2021/11/19 00:02:51;;;;;;;;;;;8.30;99.90;8.70;101040.00;;;;344279;28;90232;-88
2021/11/19 00:03:03;;;;;;;;;;;8.30;99.90;8.70;101050.00;;;;347046;28;83426;-89
2021/11/19 00:03:15;;;;;;;;;;;8.20;99.90;8.60;101043.00;;;;346992;28;89521;-88
2021/11/19 00:03:27;;;;;;;;;;;8.20;99.90;8.50;101043.00;;;;346256;28;83479;-89
2021/11/19 00:03:39;;;;;;;;;;;8.20;99.90;8.60;101039.00;;;;345705;28;88555;-88
2021/11/19 00:03:51;;;;;;;;;;;8.20;99.90;8.70;101038.00;;;;346273;28;83275;-88
2021/11/19 00:04:03;;;;;;;;;;;8.20;99.90;8.70;101042.00;;;;345642;28;89484;-88
2021/11/19 00:04:15;;;;;;;;;;;8.20;99.90;8.70;101042.00;;;;347339;28;82464;-88
2021/11/19 00:04:28;;;;;;;;;;;8.30;99.90;8.60;101039.00;;;;347097;27;88490;-88
2021/11/19 00:04:40;;;;;;;;;;;8.20;99.90;8.70;101045.00;;;;346175;28;82459;-89
2021/11/19 00:04:52;;;;;;;;;;;8.30;99.90;8.60;101046.00;;;;348325;27;89558;-88
2021/11/19 00:05:04;;;;;;;;;;;8.20;99.90;8.50;101043.00;;;;348693;27;83468;-89
2021/11/19 00:05:17;;;;;;;;;;;8.20;99.90;8.30;101041.00;;;;347116;28;89392;-88
2021/11/19 00:05:29;;;;;;;;;;;8.20;99.90;8.40;101036.00;;;;347375;28;82441;-88
2021/11/19 00:05:42;;;;;;;;;;;8.20;99.90;8.50;101038.00;;;;346227;28;90248;-88
2021/11/19 00:05:54;;;;;;;;;;;8.20;99.90;8.60;101046.00;;;;347348;28;82480;-89
2021/11/19 00:06:05;;;;;;;;;;;8.20;99.90;8.60;101046.00;;;;346915;28;89009;-88
2021/11/19 00:06:17;;;;;;;;;;;8.20;99.90;8.50;101044.00;;;;347352;28;82579;-88
2021/11/19 00:06:29;;;;;;;;;;;8.20;99.90;8.50;101043.00;;;;347117;28;89480;-88
2021/11/19 00:06:41;;;;;;;;;;;8.20;99.90;8.50;101038.00;;;;345541;28;82427;-89
2021/11/19 00:06:53;;;;;;;;;;;8.20;99.90;8.60;101041.00;;;;346955;28;91304;-89
2021/11/19 00:07:05;;;;;;;;;;;8.20;99.90;8.70;101046.00;;;;346020;28;83294;-89
2021/11/19 00:07:17;;;;;;;;;;;8.20;99.90;8.70;101047.00;;;;346830;28;92128;-88
2021/11/19 00:07:29;;;;;;;;;;;8.20;99.90;8.60;101039.00;;;;347687;28;83049;-88
2021/11/19 00:07:41;;;;;;;;;;;8.20;99.90;8.60;101040.00;;;;348303;27;90169;-89
2021/11/19 00:07:53;;;;;;;;;;;8.20;99.90;8.60;101047.00;;;;348951;27;83544;-88
2021/11/19 00:08:05;;;;;;;;;;;8.20;99.90;8.60;101049.00;;;;346971;28;91261;-89
2021/11/19 00:08:21;;;;;;;;;;;8.20;99.90;8.60;101047.00;;;;345986;28;82428;-88
2021/11/19 00:08:32;;;;;;;;;;;8.20;99.90;8.60;101047.00;;;;345858;28;88359;-89
2021/11/19 00:08:44;;;;;;;;;;;8.20;99.90;8.60;101044.00;;;;345871;28;83445;-89
2021/11/19 00:08:56;;;;;;;;;;;8.20;99.90;8.60;101036.00;;;;345685;28;88948;-89
2021/11/19 00:09:08;;;;;;;;;;;8.20;99.90;8.60;101047.00;;;;346139;28;82287;-89
2021/11/19 00:09:20;;;;;;;;;;;8.20;99.90;8.60;101048.00;;;;344260;28;88713;-88
2021/11/19 00:09:33;;;;;;;;;;;8.20;99.90;8.50;101042.00;;;;344795;28;83381;-89
2021/11/19 00:09:45;;;;;;;;;;;8.20;99.90;8.50;101037.00;;;;345685;28;89908;-89
2021/11/19 00:09:57;;;;;;;;;;;8.20;99.90;8.60;101042.00;;;;345995;28;83466;-88
2021/11/19 00:10:09;;;;;;;;;;;8.20;99.90;8.50;101049.00;;;;344434;28;88752;-89
2021/11/19 00:10:21;;;;;;;;;;;8.20;99.90;8.60;101043.00;;;;347641;28;83530;-88
2021/11/19 00:10:33;;;;;;;;;;;8.20;99.90;8.60;101044.00;;;;347179;28;89456;-89
2021/11/19 00:10:44;;;;;;;;;;;8.20;99.90;8.60;101041.00;;;;347639;28;83453;-89
2021/11/19 00:10:58;;;;;;;;;;;8.20;99.90;8.50;101041.00;;;;346745;28;90274;-88
2021/11/19 00:11:12;;;;;;;;;;;8.20;99.90;8.60;101037.00;;;;347364;28;83454;-89
2021/11/19 00:11:28;;;;;;;;;;;8.20;99.90;8.50;101038.00;;;;347240;28;88422;-88
2021/11/19 00:11:41;;;;;;;;;;;8.20;99.90;8.40;101040.00;;;;346750;28;83580;-89
2021/11/19 00:11:53;;;;;;;;;;;8.10;99.90;8.40;101048.00;;;;346035;28;90633;-88
2021/11/19 00:12:06;;;;;;;;;;;8.10;99.90;8.50;101039.00;;;;347530;28;83395;-88
2021/11/19 00:12:18;;;;;;;;;;;8.10;99.90;8.50;101046.00;;;;347095;28;89984;-88
2021/11/19 00:12:30;;;;;;;;;;;8.10;99.90;8.60;101043.00;;;;347473;28;83359;-88
2021/11/19 00:12:42;;;;;;;;;;;8.20;99.90;8.60;101039.00;;;;346062;28;91397;-88
2021/11/19 00:12:53;;;;;;;;;;;8.10;99.90;8.60;101043.00;;;;344801;28;83441;-88
2021/11/19 00:13:05;;;;;;;;;;;8.20;99.90;8.50;101043.00;;;;348356;27;91200;-88
2021/11/19 00:13:17;;;;;;;;;;;8.10;99.90;8.50;101045.00;;;;347618;28;83537;-89
2021/11/19 00:13:29;;;;;;;;;;;8.10;99.90;8.60;101036.00;;;;349738;27;91565;-88
2021/11/19 00:13:41;;;;;;;;;;;8.10;99.90;8.50;101030.00;;;;350397;27;83287;-89
2021/11/19 00:13:53;;;;;;;;;;;8.20;99.90;8.40;101037.00;;;;349781;27;91694;-89
2021/11/19 00:14:05;;;;;;;;;;;8.10;99.90;8.40;101044.00;;;;347302;28;83382;-88
2021/11/19 00:14:18;;;;;;;;;;;8.10;99.90;8.40;101047.00;;;;345770;28;89276;-88
2021/11/19 00:14:30;;;;;;;;;;;8.10;99.90;8.50;101041.00;;;;347409;28;83454;-88
2021/11/19 00:14:42;;;;;;;;;;;8.10;99.90;8.60;101038.00;;;;346289;28;88000;-88
2021/11/19 00:14:53;;;;;;;;;;;8.10;99.90;8.60;101046.00;;;;349004;27;82267;-89
2021/11/19 00:15:06;;;;;;;;;;;8.10;99.90;8.50;101042.00;;;;345874;28;89982;-89
2021/11/19 00:15:18;;;;;;;;;;;8.10;99.90;8.60;101044.00;;;;349500;27;83780;-89
2021/11/19 00:15:30;;;;;;;;;;;8.10;99.90;8.70;101039.00;;;;347934;28;88579;-88
2021/11/19 00:15:42;;;;;;;;;;;8.20;99.90;8.60;101042.00;;;;348628;27;83433;-88
2021/11/19 00:15:54;;;;;;;;;;;8.20;99.90;8.60;101036.00;;;;349420;27;88475;-88
2021/11/19 00:16:06;;;;;;;;;;;8.20;99.90;8.50;101038.00;;;;348148;28;82569;-88
2021/11/19 00:16:18;;;;;;;;;;;8.20;99.90;8.60;101036.00;;;;346544;28;89309;-89
2021/11/19 00:16:31;;;;;;;;;;;8.10;99.90;8.50;101040.00;;;;346861;28;83786;-89
2021/11/19 00:16:44;;;;;;;;;;;8.20;99.90;8.60;101040.00;;;;347741;28;89594;-89
2021/11/19 00:17:00;;;;;;;;;;;8.10;99.90;8.60;101039.00;;;;347844;28;82546;-89
2021/11/19 00:17:12;;;;;;;;;;;8.20;99.90;8.60;101043.00;;;;348900;27;88036;-88
2021/11/19 00:17:23;;;;;;;;;;;8.20;99.90;8.60;101043.00;;;;349282;27;83391;-88
2021/11/19 00:17:35;;;;;;;;;;;8.20;99.90;8.60;101040.00;;;;346600;28;90393;-89
2021/11/19 00:17:47;;;;;;;;;;;8.10;99.90;8.60;101047.00;;;;345723;28;82442;-88
2021/11/19 00:17:59;;;;;;;;;;;8.10;99.90;8.60;101046.00;;;;347873;28;89084;-89
2021/11/19 00:18:11;;;;;;;;;;;8.20;99.90;8.60;101044.00;;;;350616;27;82670;-90
2021/11/19 00:18:24;;;;;;;;;;;8.20;99.90;8.70;101040.00;;;;347822;28;90513;-89
2021/11/19 00:18:35;;;;;;;;;;;8.20;99.90;8.70;101046.00;;;;346725;28;83383;-89
2021/11/19 00:18:47;;;;;;;;;;;8.20;99.90;8.70;101037.00;;;;346317;28;89372;-90
2021/11/19 00:18:59;;;;;;;;;;;8.20;99.90;8.60;101040.00;;;;347897;28;82407;-89
2021/11/19 00:19:11;;;;;;;;;;;8.10;99.90;8.50;101042.00;;;;346330;28;89679;-88
2021/11/19 00:19:24;;;;;;;;;;;8.20;99.90;8.60;101040.00;;;;349499;27;82263;-88
2021/11/19 00:19:39;;;;;;;;;;;8.20;99.90;8.50;101040.00;;;;346450;28;88748;-89
2021/11/19 00:19:51;;;;;;;;;;;8.20;99.90;8.60;101037.00;;;;345542;28;82647;-89
2021/11/19 00:20:05;;;;;;;;;;;8.20;99.90;8.60;101036.00;;;;347878;28;87942;-88
2021/11/19 00:20:27;;;;;;;;;;;8.20;99.90;8.70;101038.00;;;;347795;28;82618;-89
2021/11/19 00:20:38;;;;;;;;;;;8.20;99.90;8.70;101034.00;;;;346383;28;90415;-89
2021/11/19 00:20:50;;;;;;;;;;;8.20;99.90;8.70;101039.00;;;;346769;27;82285;-88
2021/11/19 00:21:02;;;;;;;;;;;8.20;99.90;8.70;101035.00;;;;348826;27;88898;-89
2021/11/19 00:21:14;;;;;;;;;;;8.20;99.90;8.70;101028.00;;;;347984;28;82252;-89
2021/11/19 00:21:27;;;;;;;;;;;8.20;99.90;8.70;101033.00;;;;347267;28;90618;-88
2021/11/19 00:21:40;;;;;;;;;;;8.20;99.90;8.70;101035.00;;;;349035;27;82447;-89
2021/11/19 00:21:53;;;;;;;;;;;8.20;99.90;8.80;101032.00;;;;347482;28;88551;-89
2021/11/19 00:22:06;;;;;;;;;;;8.20;99.90;8.70;101037.00;;;;349158;27;82351;-89
2021/11/19 00:22:18;;;;;;;;;;;8.20;99.90;8.70;101041.00;;;;348427;27;90445;-88
2021/11/19 00:22:30;;;;;;;;;;;8.20;99.90;8.70;101041.00;;;;347846;28;82374;-89
2021/11/19 00:22:42;;;;;;;;;;;8.20;99.90;8.70;101036.00;;;;347019;27;91439;-88
2021/11/19 00:22:58;;;;;;;;;;;8.20;99.90;8.60;101037.00;;;;347753;28;82536;-88
2021/11/19 00:23:10;;;;;;;;;;;8.20;99.90;8.60;101033.00;;;;347107;28;90273;-88
2021/11/19 00:23:22;;;;;;;;;;;8.20;99.90;8.60;101039.00;;;;347686;28;83317;-88
2021/11/19 00:23:34;;;;;;;;;;;8.20;99.90;8.50;101027.00;;;;346704;28;88505;-88
2021/11/19 00:23:46;;;;;;;;;;;8.20;99.90;8.50;101036.00;;;;345582;28;83315;-88
2021/11/19 00:23:58;;;;;;;;;;;8.20;99.90;8.50;101042.00;;;;344183;28;91590;-89
2021/11/19 00:24:10;;;;;;;;;;;8.20;99.90;8.40;101031.00;;;;345682;28;83469;-89
2021/11/19 00:24:22;;;;;;;;;;;8.20;99.90;8.40;101026.00;;;;345749;28;89928;-89
2021/11/19 00:24:35;;;;;;;;;;;8.20;99.90;8.60;101035.00;;;;345922;28;83609;-89
2021/11/19 00:24:47;;;;;;;;;;;8.20;99.90;8.70;101042.00;;;;344421;28;89405;-89
2021/11/19 00:24:58;;;;;;;;;;;8.20;99.90;8.60;101040.00;;;;346256;28;82492;-89
2021/11/19 00:25:10;;;;;;;;;;;8.20;99.90;8.60;101032.00;;;;347154;28;89635;-89
2021/11/19 00:25:23;;;;;;;;;;;8.20;99.90;8.60;101040.00;;;;347466;28;83401;-89
2021/11/19 00:25:35;;;;;;;;;;;8.10;99.90;8.70;101032.00;;;;344488;28;87829;-89
2021/11/19 00:25:47;;;;;;;;;;;8.10;99.90;8.70;101036.00;;;;346279;28;83310;-88
2021/11/19 00:25:59;;;;;;;;;;;8.20;99.90;8.70;101037.00;;;;345577;28;87786;-89
2021/11/19 00:26:12;;;;;;;;;;;8.20;99.90;8.70;101038.00;;;;346199;28;83261;-89
2021/11/19 00:26:24;;;;;;;;;;;8.20;99.90;8.70;101036.00;;;;346866;28;90776;-88
2021/11/19 00:26:36;;;;;;;;;;;8.20;99.90;8.80;101040.00;;;;347795;27;82446;-89
2021/11/19 00:26:48;;;;;;;;;;;8.20;99.90;8.80;101035.00;;;;348252;27;89300;-88
2021/11/19 00:27:00;;;;;;;;;;;8.20;99.90;8.70;101033.00;;;;344619;28;83420;-88
2021/11/19 00:27:14;;;;;;;;;;;8.20;99.90;8.70;101028.00;;;;347252;27;89118;-89
2021/11/19 00:27:26;;;;;;;;;;;8.20;99.90;8.70;101040.00;;;;346210;28;83481;-89
2021/11/19 00:27:38;;;;;;;;;;;8.20;99.90;8.60;101028.00;;;;348287;27;91562;-89
2021/11/19 00:27:50;;;;;;;;;;;8.20;99.90;8.60;101042.00;;;;348687;27;82508;-88
2021/11/19 00:28:02;;;;;;;;;;;8.20;99.90;8.70;101039.00;;;;345530;28;88561;-89
2021/11/19 00:28:16;;;;;;;;;;;8.20;99.90;8.70;101038.00;;;;347436;28;82478;-89
2021/11/19 00:28:28;;;;;;;;;;;8.20;99.90;8.70;101035.00;;;;347187;28;89556;-89
2021/11/19 00:28:40;;;;;;;;;;;8.20;99.90;8.60;101042.00;;;;346156;28;83302;-89
2021/11/19 00:28:52;;;;;;;;;;;8.20;99.90;8.70;101033.00;;;;345677;28;90210;-89
2021/11/19 00:29:04;;;;;;;;;;;8.20;99.90;8.70;101035.00;;;;347392;28;82366;-89
2021/11/19 00:29:16;;;;;;;;;;;8.20;99.90;8.70;101041.00;;;;347096;28;88494;-89
2021/11/19 00:29:28;;;;;;;;;;;8.20;99.90;8.70;101043.00;;;;347300;28;82480;-89
2021/11/19 00:29:40;;;;;;;;;;;8.20;99.90;8.70;101030.00;;;;347470;27;88294;-88
2021/11/19 00:29:52;;;;;;;;;;;8.20;99.90;8.60;101038.00;;;;347531;28;82314;-88
2021/11/19 00:30:07;;;;;;;;;;;8.20;99.90;8.50;101034.00;;;;345542;28;89793;-88
2021/11/19 00:30:19;;;;;;;;;;;8.20;99.90;8.60;101040.00;;;;348942;27;83444;-89
2021/11/19 00:30:31;;;;;;;;;;;8.10;99.90;8.60;101037.00;;;;347088;28;89217;-88
2021/11/19 00:30:44;;;;;;;;;;;8.20;99.90;8.70;101035.00;;;;345984;28;83526;-88
2021/11/19 00:30:55;;;;;;;;;;;8.10;99.90;8.70;101036.00;;;;348443;27;90393;-88
2021/11/19 00:31:07;;;;;;;;;;;8.20;99.90;8.70;101031.00;;;;348674;27;83323;-88
2021/11/19 00:31:19;;;;;;;;;;;8.20;99.90;8.60;101031.00;;;;348509;27;89609;-88
2021/11/19 00:31:31;;;;;;;;;;;8.20;99.90;8.60;101032.00;;;;348810;27;83244;-88
2021/11/19 00:31:43;;;;;;;;;;;8.10;99.90;8.70;101026.00;;;;345829;28;87768;-88
2021/11/19 00:31:57;;;;;;;;;;;8.20;99.90;8.70;101030.00;;;;347491;27;82468;-88
2021/11/19 00:32:10;;;;;;;;;;;8.10;99.90;8.70;101027.00;;;;347227;28;88952;-88
2021/11/19 00:32:22;;;;;;;;;;;8.20;99.90;8.70;101035.00;;;;346220;28;82384;-89
2021/11/19 00:32:34;;;;;;;;;;;8.10;99.90;8.60;101026.00;;;;346490;27;89480;-89
2021/11/19 00:32:45;;;;;;;;;;;8.20;99.90;8.70;101031.00;;;;347061;28;83599;-89
2021/11/19 00:32:57;;;;;;;;;;;8.20;99.90;8.70;101038.00;;;;345627;28;88799;-89
2021/11/19 00:33:09;;;;;;;;;;;8.20;99.90;8.60;101030.00;;;;346112;28;83385;-88
2021/11/19 00:33:21;;;;;;;;;;;8.20;99.90;8.70;101026.00;;;;345535;28;90508;-89
2021/11/19 00:33:36;;;;;;;;;;;8.20;99.90;8.70;101029.00;;;;350124;27;83488;-88
2021/11/19 00:33:49;;;;;;;;;;;8.20;99.90;8.70;101030.00;;;;348490;27;89148;-89
2021/11/19 00:34:01;;;;;;;;;;;8.20;99.90;8.70;101035.00;;;;346191;28;83346;-89
2021/11/19 00:34:13;;;;;;;;;;;8.20;99.90;8.70;101029.00;;;;346989;28;89411;-89
2021/11/19 00:34:25;;;;;;;;;;;8.20;99.90;8.70;101028.00;;;;347297;28;83365;-88
2021/11/19 00:34:38;;;;;;;;;;;8.20;99.90;8.70;101021.00;;;;348333;27;89635;-88
2021/11/19 00:34:50;;;;;;;;;;;8.20;99.90;8.70;101024.00;;;;345979;28;83480;-89
2021/11/19 00:35:03;;;;;;;;;;;8.20;99.90;8.60;101032.00;;;;345672;28;88698;-88
2021/11/19 00:35:15;;;;;;;;;;;8.20;99.90;8.60;101030.00;;;;346084;28;82462;-88
2021/11/19 00:35:27;;;;;;;;;;;8.20;99.90;8.70;101033.00;;;;344191;28;92176;-88
2021/11/19 00:35:40;;;;;;;;;;;8.20;99.90;8.60;101028.00;;;;346864;27;83623;-88
2021/11/19 00:35:52;;;;;;;;;;;8.20;99.90;8.50;101038.00;;;;345517;28;90198;-89
2021/11/19 00:36:05;;;;;;;;;;;8.20;99.90;8.50;101028.00;;;;346268;28;83467;-89
2021/11/19 00:36:18;;;;;;;;;;;8.20;99.90;8.50;101026.00;;;;345816;28;88323;-89
2021/11/19 00:36:31;;;;;;;;;;;8.20;99.90;8.50;101028.00;;;;344809;28;82208;-88
2021/11/19 00:36:43;;;;;;;;;;;8.20;99.90;8.60;101027.00;;;;345646;28;89542;-89
2021/11/19 00:36:56;;;;;;;;;;;8.20;99.90;8.60;101032.00;;;;344701;28;83484;-89
2021/11/19 00:37:08;;;;;;;;;;;8.10;99.90;8.70;101034.00;;;;345705;28;90387;-89
2021/11/19 00:37:21;;;;;;;;;;;8.20;99.90;8.60;101028.00;;;;346067;28;83509;-89
2021/11/19 00:37:32;;;;;;;;;;;8.20;99.90;8.60;101034.00;;;;345542;28;90749;-89
2021/11/19 00:37:46;;;;;;;;;;;8.20;99.90;8.70;101033.00;;;;344297;28;82658;-88
2021/11/19 00:37:58;;;;;;;;;;;8.20;99.90;8.70;101033.00;;;;347133;28;89141;-89
2021/11/19 00:38:10;;;;;;;;;;;8.20;99.90;8.60;101030.00;;;;346083;28;83494;-89
2021/11/19 00:38:22;;;;;;;;;;;8.20;99.90;8.50;101037.00;;;;345483;28;92079;-88
2021/11/19 00:38:35;;;;;;;;;;;8.20;99.90;8.50;101019.00;;;;344715;28;83473;-88
2021/11/19 00:38:47;;;;;;;;;;;8.10;99.90;8.50;101034.00;;;;345362;28;89396;-89
2021/11/19 00:39:03;;;;;;;;;;;8.10;99.90;8.60;101031.00;;;;346043;28;83390;-88
2021/11/19 00:39:16;;;;;;;;;;;8.10;99.90;8.70;101030.00;;;;345624;28;92109;-89
2021/11/19 00:39:28;;;;;;;;;;;8.10;99.90;8.60;101026.00;;;;346259;28;82345;-89
2021/11/19 00:39:40;;;;;;;;;;;8.10;99.90;8.70;101023.00;;;;345622;28;89141;-89
2021/11/19 00:39:52;;;;;;;;;;;8.10;99.90;8.60;101027.00;;;;348936;27;83219;-89
2021/11/19 00:40:06;;;;;;;;;;;8.10;99.90;8.60;101028.00;;;;345639;27;90497;-88
2021/11/19 00:40:23;;;;;;;;;;;8.10;99.90;8.70;101029.00;;;;348812;27;83510;-89
2021/11/19 00:40:40;;;;;;;;;;;8.20;99.90;8.60;101030.00;;;;348054;27;89913;-89
2021/11/19 00:40:56;;;;;;;;;;;8.20;99.90;8.60;101028.00;;;;347408;28;83394;-88
2021/11/19 00:41:09;;;;;;;;;;;8.20;99.90;8.70;101028.00;;;;347031;28;89271;-89
2021/11/19 00:41:21;;;;;;;;;;;8.20;99.90;8.70;101030.00;;;;345871;28;82439;-89
2021/11/19 00:41:33;;;;;;;;;;;8.20;99.90;8.70;101029.00;;;;346862;28;90747;-89
2021/11/19 00:41:45;;;;;;;;;;;8.20;99.90;8.70;101026.00;;;;347379;28;82531;-89
2021/11/19 00:41:57;;;;;;;;;;;8.20;99.90;8.60;101027.00;;;;345679;28;87850;-89
2021/11/19 00:42:10;;;;;;;;;;;8.20;99.90;8.70;101023.00;;;;347624;28;82329;-88
2021/11/19 00:42:22;;;;;;;;;;;8.20;99.90;8.70;101033.00;;;;348215;27;91738;-89
2021/11/19 00:42:34;;;;;;;;;;;8.20;99.90;8.80;101026.00;;;;344311;28;83309;-88
2021/11/19 00:42:46;;;;;;;;;;;8.20;99.90;8.70;101030.00;;;;347058;28;89413;-88
2021/11/19 00:42:57;;;;;;;;;;;8.20;99.90;8.70;101026.00;;;;346214;28;83410;-88
2021/11/19 00:43:10;;;;;;;;;;;8.20;99.90;8.70;101028.00;;;;346903;28;90290;-88
2021/11/19 00:43:22;;;;;;;;;;;8.20;99.90;8.70;101024.00;;;;347508;28;83370;-89
2021/11/19 00:43:34;;;;;;;;;;;8.20;99.90;8.70;101022.00;;;;346865;28;91467;-89
2021/11/19 00:43:46;;;;;;;;;;;8.20;99.90;8.80;101026.00;;;;347716;28;82604;-88
2021/11/19 00:43:57;;;;;;;;;;;8.20;99.90;8.70;101031.00;;;;348179;27;92347;-89
2021/11/19 00:44:11;;;;;;;;;;;8.20;99.90;8.80;101023.00;;;;347519;28;83345;-89
2021/11/19 00:44:22;;;;;;;;;;;8.20;99.90;8.80;101022.00;;;;349451;27;91944;-89
2021/11/19 00:44:34;;;;;;;;;;;8.20;99.90;8.80;101022.00;;;;345508;28;83540;-88
2021/11/19 00:44:47;;;;;;;;;;;8.20;99.90;8.80;101020.00;;;;348103;27;91586;-89
2021/11/19 00:44:59;;;;;;;;;;;8.20;99.90;8.80;101019.00;;;;347621;28;82409;-88
2021/11/19 00:45:11;;;;;;;;;;;8.20;99.90;8.80;101017.00;;;;345664;28;89123;-88
2021/11/19 00:45:24;;;;;;;;;;;8.20;99.90;8.80;101019.00;;;;346219;28;83367;-89
2021/11/19 00:45:36;;;;;;;;;;;8.30;99.90;8.80;101000.00;;;;345638;28;90576;-88
2021/11/19 00:45:48;;;;;;;;;;;8.30;99.90;8.80;101015.00;;;;348911;27;83494;-88
2021/11/19 00:46:00;;;;;;;;;;;8.30;99.90;8.80;101018.00;;;;348282;27;90493;-89
2021/11/19 00:46:12;;;;;;;;;;;8.30;99.90;8.80;101011.00;;;;350396;27;83370;-88
2021/11/19 00:46:24;;;;;;;;;;;8.30;99.90;8.70;101014.00;;;;348341;27;91490;-88
2021/11/19 00:46:35;;;;;;;;;;;8.30;99.90;8.70;101010.00;;;;345957;28;83568;-89
2021/11/19 00:46:48;;;;;;;;;;;8.30;99.90;8.80;101017.00;;;;347243;28;89166;-89
2021/11/19 00:47:00;;;;;;;;;;;8.30;99.90;8.80;101023.00;;;;346078;28;82481;-88
2021/11/19 00:47:12;;;;;;;;;;;8.30;99.90;8.70;101020.00;;;;346733;28;87904;-89
2021/11/19 00:47:24;;;;;;;;;;;8.30;99.90;8.70;101020.00;;;;347399;28;82495;-88
2021/11/19 00:47:36;;;;;;;;;;;8.30;99.90;8.70;101018.00;;;;347914;27;91876;-88
2021/11/19 00:47:48;;;;;;;;;;;8.30;99.90;8.70;101014.00;;;;347373;28;83352;-88
2021/11/19 00:47:59;;;;;;;;;;;8.30;99.90;8.70;101013.00;;;;345728;28;88520;-88
2021/11/19 00:48:12;;;;;;;;;;;8.30;99.90;8.80;101019.00;;;;347160;27;83592;-89
2021/11/19 00:48:25;;;;;;;;;;;8.30;99.90;8.80;101020.00;;;;345739;28;89588;-89
2021/11/19 00:48:37;;;;;;;;;;;8.30;99.90;8.70;101023.00;;;;347534;27;83210;-88
2021/11/19 00:48:49;;;;;;;;;;;8.30;99.90;8.60;101018.00;;;;347072;28;88456;-88
2021/11/19 00:49:00;;;;;;;;;;;8.30;99.90;8.60;101013.00;;;;348923;27;82584;-89
2021/11/19 00:49:13;;;;;;;;;;;8.30;99.90;8.60;101017.00;;;;346529;28;88433;-88
2021/11/19 00:49:28;;;;;;;;;;;8.30;99.90;8.70;101020.00;;;;348852;27;83226;-89
2021/11/19 00:49:40;;;;;;;;;;;8.30;99.90;8.70;101021.00;;;;346831;28;91442;-88
2021/11/19 00:49:52;;;;;;;;;;;8.30;99.90;8.70;101021.00;;;;346105;28;82408;-88
2021/11/19 00:50:08;;;;;;;;;;;8.30;99.90;8.70;101017.00;;;;345814;28;88250;-89
2021/11/19 00:50:22;;;;;;;;;;;8.20;99.90;8.60;101024.00;;;;348630;27;83549;-88
2021/11/19 00:50:49;;;;;;;;;;;8.30;99.90;8.60;101023.00;;;;349334;27;90145;-89
2021/11/19 00:51:08;;;;;;;;;;;8.20;99.90;8.70;101023.00;;;;346235;28;82463;-89
2021/11/19 00:51:24;;;;;;;;;;;8.20;99.90;8.70;101022.00;;;;347070;28;89187;-89
2021/11/19 00:51:38;;;;;;;;;;;8.20;99.90;8.70;101019.00;;;;346268;28;83265;-89
2021/11/19 00:51:51;;;;;;;;;;;8.20;99.90;8.80;101010.00;;;;344033;28;88549;-88
2021/11/19 00:52:03;;;;;;;;;;;8.20;99.90;8.80;101018.00;;;;347626;28;82323;-89
2021/11/19 00:52:15;;;;;;;;;;;8.20;99.90;8.70;101017.00;;;;345526;28;92731;-89
2021/11/19 00:52:27;;;;;;;;;;;8.20;99.90;8.80;101016.00;;;;343419;28;83144;-88
2021/11/19 00:52:39;;;;;;;;;;;8.20;99.90;8.80;101017.00;;;;344329;28;88851;-89
2021/11/19 00:52:51;;;;;;;;;;;8.20;99.90;8.80;101011.00;;;;344888;28;83392;-89
2021/11/19 00:53:03;;;;;;;;;;;8.20;99.90;8.80;101021.00;;;;345883;28;89029;-88
2021/11/19 00:53:15;;;;;;;;;;;8.20;99.90;8.80;101013.00;;;;347284;28;82766;-89
2021/11/19 00:53:27;;;;;;;;;;;8.20;99.90;8.80;101026.00;;;;344241;28;91445;-89
2021/11/19 00:53:39;;;;;;;;;;;8.20;99.90;8.70;101015.00;;;;346170;28;82781;-89
2021/11/19 00:53:54;;;;;;;;;;;8.20;99.90;8.70;101019.00;;;;347238;27;90230;-88
2021/11/19 00:54:06;;;;;;;;;;;8.20;99.90;8.60;101020.00;;;;346028;28;83306;-88
2021/11/19 00:54:18;;;;;;;;;;;8.20;99.90;8.70;101015.00;;;;345757;28;90288;-89
2021/11/19 00:54:30;;;;;;;;;;;8.20;99.90;8.70;101019.00;;;;344582;28;83246;-88
2021/11/19 00:54:42;;;;;;;;;;;8.20;99.90;8.80;101021.00;;;;347127;28;88332;-89
2021/11/19 00:54:54;;;;;;;;;;;8.20;99.90;8.80;101013.00;;;;347621;28;82450;-89
2021/11/19 00:55:06;;;;;;;;;;;8.30;99.90;8.70;101025.00;;;;345453;28;87114;-89
2021/11/19 00:55:18;;;;;;;;;;;8.20;99.90;8.70;101015.00;;;;348862;27;83444;-89
2021/11/19 00:55:31;;;;;;;;;;;8.20;99.90;8.70;101021.00;;;;347109;28;89649;-89
2021/11/19 00:55:42;;;;;;;;;;;8.20;99.90;8.80;101018.00;;;;345742;28;83609;-89
2021/11/19 00:55:54;;;;;;;;;;;8.20;99.90;8.80;101020.00;;;;345523;28;87571;-89
2021/11/19 00:56:06;;;;;;;;;;;8.20;99.90;8.80;101014.00;;;;349137;28;82394;-88
2021/11/19 00:56:20;;;;;;;;;;;8.30;99.90;8.80;101024.00;;;;350219;27;90440;-88
2021/11/19 00:56:37;;;;;;;;;;;8.30;99.90;8.80;101017.00;;;;349024;28;83244;-88
2021/11/19 00:56:51;;;;;;;;;;;8.20;99.90;8.80;101013.00;;;;348571;28;89523;-87
2021/11/19 00:57:14;;;;;;;;;;;8.30;99.90;8.80;101019.00;;;;349257;28;82412;-85
2021/11/19 00:57:25;;;;;;;;;;;8.30;99.90;8.80;101012.00;;;;349031;28;88160;-88
2021/11/19 00:57:37;;;;;;;;;;;8.30;99.90;8.80;101018.00;;;;349247;28;82574;-87
2021/11/19 00:57:49;;;;;;;;;;;8.30;99.90;8.80;101017.00;;;;347598;28;90497;-88
2021/11/19 00:58:01;;;;;;;;;;;8.30;99.90;8.80;101022.00;;;;349488;27;82424;-88
2021/11/19 00:58:14;;;;;;;;;;;8.30;99.90;8.80;101022.00;;;;347340;28;90908;-87
2021/11/19 00:58:26;;;;;;;;;;;8.30;99.90;8.80;101022.00;;;;348152;28;82314;-88
2021/11/19 00:58:38;;;;;;;;;;;8.30;99.90;8.70;101020.00;;;;347273;28;91162;-87
2021/11/19 00:58:50;;;;;;;;;;;8.30;99.90;8.70;101025.00;;;;348964;28;82370;-89
2021/11/19 00:59:03;;;;;;;;;;;8.30;99.90;8.70;101020.00;;;;346161;28;88034;-87
2021/11/19 00:59:16;;;;;;;;;;;8.30;99.90;8.70;101026.00;;;;348252;28;82226;-87
2021/11/19 00:59:28;;;;;;;;;;;8.20;99.90;8.70;101016.00;;;;349364;28;87519;-88
2021/11/19 00:59:40;;;;;;;;;;;8.30;99.90;8.80;101007.00;;;;348715;28;82667;-88
2021/11/19 00:59:52;;;;;;;;;;;8.30;99.90;8.80;101020.00;;;;350037;27;89587;-88
2021/11/19 01:00:08;;;;;;;;;;;8.30;99.90;8.80;101019.00;;;;350662;27;82297;-87
2021/11/19 01:00:23;;;;;;;;;;;8.30;99.90;8.70;101022.00;;;;350255;27;90051;-87
2021/11/19 01:00:41;;;;;;;;;;;8.30;99.90;8.60;101021.00;;;;349127;28;82393;-88
2021/11/19 01:01:05;;;;;;;;;;;8.30;99.90;8.70;101025.00;;;;348403;28;91405;-89
2021/11/19 01:01:19;;;;;;;;;;;8.30;99.90;8.70;101024.00;;;;348731;27;83620;-89
2021/11/19 01:01:35;;;;;;;;;;;8.20;99.90;8.70;101018.00;;;;346854;28;91554;-89
2021/11/19 01:01:50;;;;;;;;;;;8.20;99.90;8.60;101021.00;;;;347531;28;83237;-89
2021/11/19 01:02:06;;;;;;;;;;;8.20;99.90;8.70;101017.00;;;;347110;27;89068;-90
2021/11/19 01:02:22;;;;;;;;;;;8.20;99.90;8.70;101024.00;;;;347416;28;82610;-89
2021/11/19 01:02:34;;;;;;;;;;;8.20;99.90;8.80;101022.00;;;;346837;28;92091;-89
2021/11/19 01:02:45;;;;;;;;;;;8.20;99.90;8.80;101020.00;;;;348629;27;83561;-89
2021/11/19 01:02:57;;;;;;;;;;;8.20;99.90;8.80;101018.00;;;;348510;27;87710;-88
2021/11/19 01:03:09;;;;;;;;;;;8.20;99.90;8.70;101020.00;;;;348907;27;82525;-88
2021/11/19 01:03:21;;;;;;;;;;;8.20;99.90;8.80;101024.00;;;;345627;28;90128;-88
2021/11/19 01:03:33;;;;;;;;;;;8.20;99.90;8.80;101018.00;;;;349066;27;83756;-89
2021/11/19 01:03:45;;;;;;;;;;;8.30;99.90;8.80;101017.00;;;;345796;28;87700;-89
2021/11/19 01:03:58;;;;;;;;;;;8.20;99.90;8.80;101019.00;;;;347612;28;82421;-89
2021/11/19 01:04:10;;;;;;;;;;;8.30;99.90;8.80;101016.00;;;;347134;28;89672;-89